Time;durP1;ratioP1;P1;durP2;ratioP2;P2;SDS_P1;SDS_P2;PMS_P1;PMS_P2;Temp;Humidity;BMP_temperature;BMP_pressure;BME280_temperature;BME280_humidity;BME280_pressure;Samples;Min_cycle;Max_cycle;Signal;HPM_P1;HPM_P2
2021/10/11 00:02:25;;;;;;;1.20;1.00;;;4.90;98.00;;;;;;5051910;28;21194;-69
2021/10/11 00:04:52;;;;;;;1.20;1.10;;;4.90;98.00;;;;;;5051892;28;20445;-69
2021/10/11 00:07:20;;;;;;;1.37;1.17;;;4.70;98.00;;;;;;5052067;28;20459;-69
2021/10/11 00:09:47;;;;;;;1.30;1.20;;;4.70;98.00;;;;;;5052004;28;20467;-69
2021/10/11 00:12:18;;;;;;;1.20;1.00;;;4.70;98.00;;;;;;5051914;28;20454;-69
2021/10/11 00:14:45;;;;;;;1.97;1.60;;;4.70;98.00;;;;;;5051929;28;20952;-69
2021/10/11 00:17:14;;;;;;;2.40;1.53;;;4.60;98.00;;;;;;5051893;28;20492;-69
2021/10/11 00:19:43;;;;;;;1.20;1.10;;;4.60;98.00;;;;;;5052038;28;20450;-69
2021/10/11 00:22:10;;;;;;;1.80;1.23;;;4.50;98.00;;;;;;5050789;28;20486;-70
2021/10/11 00:24:37;;;;;;;1.50;1.00;;;4.70;98.00;;;;;;5051653;28;20943;-69
2021/10/11 00:27:04;;;;;;;1.67;1.47;;;4.60;98.00;;;;;;5033923;28;20522;-70
2021/10/11 00:29:31;;;;;;;1.63;1.10;;;4.60;98.00;;;;;;5051616;28;20458;-69
2021/10/11 00:31:58;;;;;;;1.20;1.10;;;4.60;98.00;;;;;;5051781;28;20785;-70
2021/10/11 00:34:27;;;;;;;1.40;1.10;;;4.70;98.00;;;;;;5051790;28;20518;-69
2021/10/11 00:36:54;;;;;;;1.20;1.03;;;4.70;98.00;;;;;;5051643;28;20456;-69
2021/10/11 00:39:21;;;;;;;2.57;1.33;;;4.40;98.00;;;;;;5051914;28;20454;-69
2021/10/11 00:41:48;;;;;;;1.80;1.40;;;4.30;98.00;;;;;;5034258;28;20891;-69
2021/10/11 00:44:15;;;;;;;2.13;2.03;;;4.30;98.00;;;;;;5051810;28;20460;-69
2021/10/11 00:46:42;;;;;;;1.20;1.10;;;4.40;98.00;;;;;;5033685;28;21150;-68
2021/10/11 00:49:09;;;;;;;4.77;1.37;;;4.40;98.00;;;;;;5051663;28;20530;-69
2021/10/11 00:51:37;;;;;;;1.20;1.10;;;4.30;98.00;;;;;;5051368;28;20513;-70
2021/10/11 00:54:06;;;;;;;1.20;1.00;;;4.20;98.00;;;;;;5051622;28;20510;-70
2021/10/11 00:56:33;;;;;;;1.30;1.10;;;4.20;98.00;;;;;;5051401;28;20594;-70
2021/10/11 00:59:00;;;;;;;4.80;1.57;;;4.30;98.00;;;;;;5051514;28;20595;-69
2021/10/11 01:01:27;;;;;;;4.80;1.57;;;4.40;98.00;;;;;;5051145;28;20460;-68
2021/10/11 01:03:54;;;;;;;1.20;1.10;;;4.30;98.00;;;;;;5051420;28;20894;-69
2021/10/11 01:06:21;;;;;;;1.20;1.10;;;4.30;98.00;;;;;;5051390;28;20456;-70
2021/10/11 01:08:51;;;;;;;1.30;1.20;;;4.30;98.00;;;;;;5051233;28;20848;-69
2021/10/11 01:11:18;;;;;;;1.83;1.33;;;4.30;98.00;;;;;;5051297;28;20453;-69
2021/10/11 01:13:45;;;;;;;1.50;1.40;;;4.30;98.00;;;;;;5051174;28;20456;-70
2021/10/11 01:16:12;;;;;;;1.20;1.00;;;4.20;98.00;;;;;;5051037;28;20452;-71
2021/10/11 01:18:42;;;;;;;6.70;1.93;;;4.30;98.00;;;;;;5051043;28;20457;-69
2021/10/11 01:21:11;;;;;;;1.20;1.10;;;4.30;98.00;;;;;;5051234;28;20947;-70
2021/10/11 01:23:39;;;;;;;1.37;1.20;;;4.40;98.00;;;;;;5051172;28;20542;-69
2021/10/11 01:26:06;;;;;;;1.30;1.20;;;4.60;98.00;;;;;;5051085;28;20780;-70
2021/10/11 01:28:33;;;;;;;1.40;1.20;;;4.70;98.00;;;;;;5051324;28;20529;-69
2021/10/11 01:31:00;;;;;;;1.20;1.10;;;4.60;98.00;;;;;;5051084;28;20947;-69
2021/10/11 01:33:27;;;;;;;1.57;1.30;;;4.40;98.00;;;;;;5051873;28;20504;-69
2021/10/11 01:35:54;;;;;;;1.30;1.27;;;4.40;98.00;;;;;;5055080;28;20951;-70
2021/10/11 01:38:23;;;;;;;1.20;1.10;;;4.20;98.00;;;;;;5054862;28;20491;-69
2021/10/11 01:40:50;;;;;;;1.30;1.27;;;4.00;98.00;;;;;;5054919;28;20459;-68
2021/10/11 01:43:19;;;;;;;3.83;2.27;;;4.00;98.00;;;;;;5054681;28;20520;-69
2021/10/11 01:45:50;;;;;;;1.20;1.10;;;4.00;98.00;;;;;;5054671;28;20494;-69
2021/10/11 01:48:21;;;;;;;1.60;1.50;;;4.10;98.00;;;;;;5054797;28;20495;-69
2021/10/11 01:50:48;;;;;;;1.20;1.00;;;4.10;98.00;;;;;;5054549;28;20462;-69
2021/10/11 01:53:15;;;;;;;1.43;1.20;;;4.10;98.00;;;;;;5054479;28;20514;-69
2021/10/11 01:55:43;;;;;;;1.20;1.10;;;4.20;98.00;;;;;;5054777;28;20538;-69
2021/10/11 01:58:11;;;;;;;3.30;1.20;;;4.00;98.00;;;;;;5054583;28;20541;-69
2021/10/11 02:00:38;;;;;;;3.10;1.87;;;4.00;98.00;;;;;;5054537;28;20446;-69
2021/10/11 02:03:07;;;;;;;1.50;1.40;;;3.90;98.00;;;;;;5054641;28;20887;-69
2021/10/11 02:05:34;;;;;;;1.50;1.43;;;3.90;98.00;;;;;;5054815;28;20469;-69
2021/10/11 02:08:02;;;;;;;1.30;1.10;;;3.80;98.00;;;;;;5054535;28;20521;-69
2021/10/11 02:10:29;;;;;;;5.77;1.87;;;3.70;98.00;;;;;;5054593;28;20469;-69
2021/10/11 02:12:59;;;;;;;1.40;1.20;;;3.70;98.00;;;;;;5054235;28;20458;-69
2021/10/11 02:15:27;;;;;;;1.40;1.20;;;3.90;98.00;;;;;;5054219;28;20495;-70
2021/10/11 02:17:56;;;;;;;1.20;1.10;;;4.00;98.00;;;;;;5054116;28;20555;-69
2021/10/11 02:20:26;;;;;;;1.57;1.57;;;4.20;98.00;;;;;;5053763;28;20516;-70
2021/10/11 02:22:53;;;;;;;2.10;1.57;;;3.90;98.00;;;;;;5053672;28;20482;-69
2021/10/11 02:25:20;;;;;;;1.20;1.00;;;3.70;98.00;;;;;;5054127;28;20456;-69
2021/10/11 02:27:47;;;;;;;2.30;1.67;;;3.60;98.00;;;;;;5053560;28;20494;-69
2021/10/11 02:30:16;;;;;;;1.20;1.10;;;3.50;98.00;;;;;;5053694;28;20448;-70
2021/10/11 02:32:45;;;;;;;4.90;1.70;;;3.80;98.00;;;;;;5053897;28;20498;-69
2021/10/11 02:35:13;;;;;;;1.70;1.40;;;3.60;98.00;;;;;;5053888;28;20454;-69
2021/10/11 02:37:42;;;;;;;2.47;1.73;;;3.90;98.00;;;;;;5053533;28;20463;-69
2021/10/11 02:40:10;;;;;;;1.20;1.10;;;3.90;98.00;;;;;;5053614;28;20500;-69
2021/10/11 02:42:37;;;;;;;1.37;1.33;;;4.00;98.00;;;;;;5053579;28;20483;-70
2021/10/11 02:45:06;;;;;;;2.03;1.37;;;3.90;98.00;;;;;;5052530;28;20518;-69
2021/10/11 02:47:34;;;;;;;1.50;1.17;;;3.90;98.00;;;;;;5053202;28;20459;-69
2021/10/11 02:50:02;;;;;;;2.20;1.60;;;3.90;98.00;;;;;;5034907;28;20458;-68
2021/10/11 02:52:31;;;;;;;1.40;1.37;;;3.60;98.00;;;;;;5052837;28;20458;-69
2021/10/11 02:54:58;;;;;;;1.50;1.13;;;3.50;98.00;;;;;;5052969;28;20460;-69
2021/10/11 02:57:25;;;;;;;1.33;1.27;;;3.40;98.00;;;;;;5053455;28;21033;-68
2021/10/11 02:59:52;;;;;;;1.27;1.17;;;3.20;98.00;;;;;;5053364;28;20614;-70
2021/10/11 03:02:19;;;;;;;1.37;1.33;;;3.30;98.00;;;;;;5053392;28;20897;-69
2021/10/11 03:04:49;;;;;;;2.43;1.40;;;3.30;98.00;;;;;;5053346;28;20957;-70
2021/10/11 03:07:17;;;;;;;3.10;1.27;;;3.10;98.00;;;;;;5053300;28;20511;-70
2021/10/11 03:09:44;;;;;;;1.50;1.30;;;3.20;98.00;;;;;;5053120;28;20464;-70
2021/10/11 03:12:12;;;;;;;1.30;1.17;;;3.10;98.00;;;;;;5053404;28;20798;-69
2021/10/11 03:14:39;;;;;;;3.10;1.20;;;3.00;98.00;;;;;;5053255;28;20481;-69
2021/10/11 03:17:08;;;;;;;1.30;1.17;;;3.00;98.00;;;;;;5053043;28;20540;-69
2021/10/11 03:19:41;;;;;;;2.17;1.30;;;2.90;98.00;;;;;;5053214;28;20486;-70
2021/10/11 03:22:09;;;;;;;1.20;1.10;;;2.90;98.00;;;;;;5052997;28;20481;-69
2021/10/11 03:24:36;;;;;;;1.70;1.20;;;2.90;98.00;;;;;;5053203;28;20547;-69
2021/10/11 03:27:03;;;;;;;2.43;1.47;;;3.00;98.00;;;;;;5052938;28;20552;-70
2021/10/11 03:29:30;;;;;;;1.23;1.13;;;3.20;98.00;;;;;;5035174;28;20455;-70
2021/10/11 03:31:57;;;;;;;1.20;1.07;;;3.40;98.00;;;;;;5052947;28;20456;-69
2021/10/11 03:34:24;;;;;;;2.17;1.47;;;3.20;98.00;;;;;;5052740;28;21004;-70
2021/10/11 03:36:51;;;;;;;3.00;1.63;;;3.00;98.00;;;;;;5052473;28;20505;-69
2021/10/11 03:39:20;;;;;;;1.47;1.43;;;2.90;98.00;;;;;;5052594;28;20453;-70
2021/10/11 03:41:47;;;;;;;1.30;1.30;;;2.90;98.00;;;;;;5052565;28;20490;-70
2021/10/11 03:44:14;;;;;;;1.73;1.40;;;3.00;98.00;;;;;;5052250;28;20489;-70
2021/10/11 03:46:41;;;;;;;1.60;1.20;;;3.00;98.00;;;;;;5052397;28;20485;-70
2021/10/11 03:49:08;;;;;;;2.50;1.37;;;3.20;98.00;;;;;;5052396;28;20516;-69
2021/10/11 03:51:35;;;;;;;1.20;1.00;;;3.30;98.00;;;;;;5034681;28;20492;-69
2021/10/11 03:54:03;;;;;;;1.50;1.27;;;3.50;98.00;;;;;;5052249;28;20520;-69
2021/10/11 03:56:31;;;;;;;1.50;1.20;;;3.30;98.00;;;;;;5052129;28;20515;-69
2021/10/11 03:58:58;;;;;;;1.20;1.20;;;3.30;98.00;;;;;;5052169;28;20707;-69
2021/10/11 04:01:25;;;;;;;2.13;2.00;;;3.30;98.00;;;;;;5052223;28;20462;-69
2021/10/11 04:03:53;;;;;;;1.40;1.40;;;3.00;98.00;;;;;;5052205;28;20901;-70
2021/10/11 04:06:20;;;;;;;1.77;1.20;;;2.90;98.00;;;;;;5052245;28;20824;-69
2021/10/11 04:08:49;;;;;;;1.40;1.27;;;3.10;98.00;;;;;;5052118;28;20504;-70
2021/10/11 04:11:23;;;;;;;1.37;1.33;;;3.40;98.00;;;;;;5052069;28;20484;-69
2021/10/11 04:13:52;;;;;;;1.50;1.20;;;3.40;98.00;;;;;;5051896;28;20454;-69
2021/10/11 04:16:19;;;;;;;1.20;1.10;;;3.30;98.00;;;;;;5052122;28;20515;-69
2021/10/11 04:18:46;;;;;;;1.37;1.17;;;3.40;98.00;;;;;;5052075;28;20461;-70
2021/10/11 04:21:13;;;;;;;1.47;1.30;;;3.30;98.00;;;;;;5051943;28;20540;-70
2021/10/11 04:23:40;;;;;;;1.30;1.30;;;3.20;98.00;;;;;;5051810;28;20486;-70
2021/10/11 04:26:07;;;;;;;1.33;1.30;;;3.00;98.00;;;;;;5051966;28;20539;-69
2021/10/11 04:28:34;;;;;;;10.23;2.20;;;3.10;98.00;;;;;;5051761;28;20508;-70
2021/10/11 04:31:03;;;;;;;1.30;1.10;;;3.10;98.00;;;;;;5051969;28;20489;-69
2021/10/11 04:33:30;;;;;;;1.50;1.40;;;2.90;98.00;;;;;;5051874;28;20946;-69
2021/10/11 04:35:57;;;;;;;1.50;1.10;;;2.80;98.00;;;;;;5051821;28;20921;-69
2021/10/11 04:38:24;;;;;;;1.30;1.20;;;2.80;98.00;;;;;;5051674;28;20454;-69
2021/10/11 04:40:51;;;;;;;3.83;1.87;;;2.90;98.00;;;;;;5051664;28;20484;-69
2021/10/11 04:43:18;;;;;;;1.50;1.30;;;2.70;98.00;;;;;;5051694;28;20578;-69
2021/10/11 04:45:46;;;;;;;1.20;1.10;;;2.70;98.00;;;;;;5051949;28;20493;-69
2021/10/11 04:48:14;;;;;;;1.30;1.30;;;2.60;98.00;;;;;;5051626;28;20515;-70
2021/10/11 04:50:41;;;;;;;2.13;1.53;;;2.60;98.00;;;;;;5034050;28;20967;-70
2021/10/11 04:53:10;;;;;;;1.20;1.10;;;2.60;98.00;;;;;;5033871;28;21027;-70
2021/10/11 04:55:37;;;;;;;2.87;2.20;;;2.70;98.00;;;;;;5051761;28;20459;-69
2021/10/11 04:58:04;;;;;;;8.93;2.00;;;2.50;98.00;;;;;;5051297;28;20590;-69
2021/10/11 05:00:31;;;;;;;5.30;1.57;;;2.50;98.00;;;;;;5051304;28;20490;-69
2021/10/11 05:02:58;;;;;;;1.40;1.20;;;2.40;98.00;;;;;;5051422;28;20551;-69
2021/10/11 05:05:27;;;;;;;1.30;1.20;;;2.40;98.00;;;;;;5051368;28;20514;-69
2021/10/11 05:07:56;;;;;;;1.40;1.30;;;2.40;98.00;;;;;;5051392;28;20501;-69
2021/10/11 05:10:24;;;;;;;1.60;1.37;;;2.30;98.00;;;;;;5055084;28;20460;-69
2021/10/11 05:12:51;;;;;;;6.97;1.73;;;2.20;98.00;;;;;;5055370;28;20490;-69
2021/10/11 05:15:18;;;;;;;2.13;1.40;;;2.20;98.00;;;;;;5055344;28;20489;-69
2021/10/11 05:17:45;;;;;;;1.20;1.20;;;2.20;98.00;;;;;;5055254;28;20485;-69
2021/10/11 05:20:12;;;;;;;2.90;1.43;;;2.30;98.00;;;;;;5055266;28;20449;-69
2021/10/11 05:22:41;;;;;;;1.20;1.00;;;2.40;98.00;;;;;;5055018;28;20543;-69
2021/10/11 05:25:10;;;;;;;4.80;2.10;;;2.60;98.00;;;;;;5054964;28;20453;-69
2021/10/11 05:27:37;;;;;;;1.20;1.00;;;2.70;98.00;;;;;;5054922;28;20518;-69
2021/10/11 05:30:05;;;;;;;1.57;1.50;;;2.70;98.00;;;;;;5055201;28;20501;-70
2021/10/11 05:32:34;;;;;;;2.10;1.37;;;2.70;98.00;;;;;;5037391;28;20526;-70
2021/10/11 05:35:03;;;;;;;1.20;1.10;;;2.70;98.00;;;;;;5055056;28;20460;-70
2021/10/11 05:37:31;;;;;;;3.00;1.87;;;2.70;98.00;;;;;;5037234;28;20869;-69
2021/10/11 05:39:59;;;;;;;1.40;1.20;;;2.50;98.00;;;;;;5054976;28;20497;-70
2021/10/11 05:42:26;;;;;;;17.93;1.77;;;2.70;98.00;;;;;;5054847;28;20458;-69
2021/10/11 05:44:54;;;;;;;1.20;1.00;;;2.80;98.00;;;;;;5054872;28;20486;-69
2021/10/11 05:47:20;;;;;;;2.40;1.47;;;2.90;98.00;;;;;;5054857;28;20542;-70
2021/10/11 05:49:48;;;;;;;2.03;1.50;;;2.90;98.00;;;;;;5037027;28;20454;-69
2021/10/11 05:52:14;;;;;;;2.10;1.73;;;2.80;98.00;;;;;;5054775;28;20812;-70
2021/10/11 05:54:41;;;;;;;1.70;1.47;;;2.70;98.00;;;;;;5054489;28;20449;-68
2021/10/11 05:57:10;;;;;;;1.20;1.00;;;2.60;98.00;;;;;;5054591;28;20936;-70
2021/10/11 05:59:37;;;;;;;2.07;1.30;;;2.50;98.00;;;;;;5054608;28;20870;-70
2021/10/11 06:02:05;;;;;;;2.07;1.40;;;2.50;98.00;;;;;;5054680;28;20488;-70
2021/10/11 06:04:32;;;;;;;1.83;1.50;;;2.40;98.00;;;;;;5054587;28;20485;-69
2021/10/11 06:07:00;;;;;;;1.50;1.23;;;2.40;98.00;;;;;;5054466;28;20457;-68
2021/10/11 06:09:27;;;;;;;1.57;1.40;;;2.60;98.00;;;;;;5036528;28;20486;-70
2021/10/11 06:11:54;;;;;;;1.20;1.00;;;2.80;98.00;;;;;;5054413;28;20486;-69
2021/10/11 06:14:22;;;;;;;5.30;1.77;;;3.00;98.00;;;;;;5054346;28;20485;-69
2021/10/11 06:16:49;;;;;;;2.53;1.40;;;3.00;98.00;;;;;;5054466;28;20941;-69
2021/10/11 06:19:16;;;;;;;1.60;1.17;;;3.20;98.00;;;;;;5054151;28;20517;-69
2021/10/11 06:21:43;;;;;;;3.83;1.50;;;3.30;98.00;;;;;;5036328;28;20480;-70
2021/10/11 06:24:11;;;;;;;1.43;1.27;;;3.40;98.00;;;;;;5054040;28;20490;-69
2021/10/11 06:26:38;;;;;;;1.57;1.33;;;3.40;98.00;;;;;;5053879;28;20464;-69
2021/10/11 06:29:08;;;;;;;1.20;1.17;;;3.30;98.00;;;;;;5053832;28;20489;-69
2021/10/11 06:31:36;;;;;;;1.47;1.20;;;3.40;98.00;;;;;;5053909;28;20454;-70
2021/10/11 06:34:03;;;;;;;1.40;1.10;;;3.50;98.00;;;;;;5053940;28;20450;-70
2021/10/11 06:36:34;;;;;;;2.53;1.30;;;3.70;98.00;;;;;;5053960;28;20459;-69
2021/10/11 06:39:04;;;;;;;2.03;1.43;;;3.80;98.00;;;;;;5036253;28;20546;-70
2021/10/11 06:41:31;;;;;;;1.43;1.20;;;3.90;98.00;;;;;;5053761;28;20454;-69
2021/10/11 06:43:59;;;;;;;3.87;1.33;;;3.90;98.00;;;;;;5053625;28;21089;-69
2021/10/11 06:46:26;;;;;;;1.40;1.20;;;3.90;98.00;;;;;;5053630;28;20881;-69
2021/10/11 06:48:54;;;;;;;1.70;1.63;;;3.90;98.00;;;;;;5053226;28;21018;-69
2021/10/11 06:51:21;;;;;;;3.10;2.40;;;3.90;98.00;;;;;;5053494;28;20454;-69
2021/10/11 06:53:48;;;;;;;1.20;1.10;;;4.00;98.00;;;;;;5053388;28;20498;-69
2021/10/11 06:56:15;;;;;;;1.30;1.10;;;4.10;98.00;;;;;;5057252;28;20862;-68
2021/10/11 06:58:42;;;;;;;1.87;1.43;;;4.20;98.00;;;;;;5056701;28;20505;-68
2021/10/11 07:01:09;;;;;;;1.20;1.10;;;4.30;98.00;;;;;;5051175;28;20457;-68
2021/10/11 07:03:38;;;;;;;1.70;1.37;;;4.40;98.00;;;;;;5046301;28;20525;-68
2021/10/11 07:06:13;;;;;;;1.40;1.20;;;4.60;98.00;;;;;;5065772;28;20466;-68
2021/10/11 07:08:40;;;;;;;3.77;1.63;;;4.30;98.00;;;;;;5028425;28;20653;-69
2021/10/11 07:11:08;;;;;;;1.20;1.10;;;4.30;98.00;;;;;;5060951;28;20454;-68
2021/10/11 07:13:36;;;;;;;2.30;1.37;;;4.30;98.00;;;;;;5063612;28;20803;-69
2021/10/11 07:16:04;;;;;;;1.37;1.10;;;4.50;98.00;;;;;;5064981;28;20467;-69
2021/10/11 07:18:34;;;;;;;1.60;1.50;;;4.70;98.00;;;;;;5065440;28;20489;-69
2021/10/11 07:21:01;;;;;;;1.50;1.20;;;4.80;98.00;;;;;;5056353;28;20528;-69
2021/10/11 07:23:30;;;;;;;1.30;1.23;;;4.90;98.00;;;;;;5052030;28;21024;-69
2021/10/11 07:25:59;;;;;;;2.10;1.37;;;5.00;98.00;;;;;;5064347;28;20944;-69
2021/10/11 07:28:27;;;;;;;1.40;1.30;;;5.10;98.00;;;;;;5055625;28;20949;-69
2021/10/11 07:30:54;;;;;;;1.83;1.80;;;5.20;98.00;;;;;;5064022;28;20450;-69
2021/10/11 07:33:21;;;;;;;1.70;1.33;;;5.20;98.00;;;;;;5055995;28;20456;-69
2021/10/11 07:35:50;;;;;;;1.20;1.03;;;5.00;98.00;;;;;;5052822;28;21186;-67
2021/10/11 07:38:18;;;;;;;2.27;1.67;;;5.10;98.00;;;;;;5064130;28;20931;-69
2021/10/11 07:40:46;;;;;;;1.20;1.20;;;5.20;98.00;;;;;;5065550;28;20566;-69
2021/10/11 07:43:13;;;;;;;1.40;1.20;;;5.30;98.00;;;;;;5055308;28;20459;-68
2021/10/11 07:45:40;;;;;;;2.47;1.70;;;5.30;98.00;;;;;;5059352;28;20488;-69
2021/10/11 07:48:07;;;;;;;1.57;1.10;;;5.30;98.00;;;;;;5058997;28;21054;-68
2021/10/11 07:50:34;;;;;;;1.60;1.30;;;5.40;98.00;;;;;;5065184;28;20456;-69
2021/10/11 07:53:01;;;;;;;1.50;1.37;;;5.50;98.00;;;;;;5062668;28;20905;-70
2021/10/11 07:58:17;;;;;;;1.57;1.50;;;5.90;98.00;;;;;;5066956;28;20498;-70
2021/10/11 08:00:44;;;;;;;3.27;1.57;;;6.10;98.00;;;;;;5067947;28;20483;-68
2021/10/11 08:03:11;;;;;;;1.30;1.20;;;6.10;98.00;;;;;;5062837;28;20497;-69
2021/10/11 08:05:38;;;;;;;1.63;1.60;;;6.30;98.00;;;;;;5065002;28;20527;-69
2021/10/11 08:08:06;;;;;;;1.50;1.40;;;6.40;98.00;;;;;;5036520;28;20490;-69
2021/10/11 08:10:34;;;;;;;1.33;1.23;;;6.50;98.00;;;;;;5055883;28;20465;-69
2021/10/11 08:13:01;;;;;;;2.80;1.40;;;6.60;98.00;;;;;;5062863;28;20454;-69
2021/10/11 08:15:29;;;;;;;1.80;1.70;;;6.80;98.00;;;;;;5055849;28;20494;-69
2021/10/11 08:17:56;;;;;;;2.10;1.80;;;7.00;98.00;;;;;;5054656;28;20509;-69
2021/10/11 08:20:24;;;;;;;1.57;1.27;;;7.20;98.00;;;;;;5054512;28;21056;-69
2021/10/11 08:22:52;;;;;;;2.43;1.43;;;7.30;98.00;;;;;;5067225;28;20547;-69
2021/10/11 08:25:19;;;;;;;1.43;1.13;;;7.40;98.00;;;;;;5059214;28;20493;-69
2021/10/11 08:27:46;;;;;;;2.60;1.77;;;7.50;98.00;;;;;;5066765;28;20464;-69
2021/10/11 08:30:14;;;;;;;1.40;1.30;;;7.70;98.00;;;;;;5067788;28;20540;-70
2021/10/11 08:32:42;;;;;;;1.40;1.37;;;7.70;98.00;;;;;;5036420;28;20486;-69
2021/10/11 08:35:10;;;;;;;1.80;1.50;;;7.90;98.00;;;;;;5054199;28;20544;-69
2021/10/11 08:37:36;;;;;;;1.70;1.37;;;8.20;98.00;;;;;;5067320;28;20453;-70
2021/10/11 08:40:04;;;;;;;2.40;1.93;;;8.30;98.00;;;;;;5067174;28;20518;-69
2021/10/11 08:42:31;;;;;;;1.87;1.40;;;8.50;98.00;;;;;;5058133;28;20493;-69
2021/10/11 08:44:59;;;;;;;1.20;1.10;;;8.70;98.00;;;;;;5063817;28;20526;-70
2021/10/11 08:47:26;;;;;;;4.73;1.53;;;8.90;98.00;;;;;;5059115;28;20467;-70
2021/10/11 08:49:54;;;;;;;1.67;1.23;;;9.00;98.00;;;;;;5059183;28;20950;-70
2021/10/11 08:52:22;;;;;;;3.37;2.07;;;9.10;98.00;;;;;;5062699;28;20466;-70
2021/10/11 08:54:50;;;;;;;1.77;1.60;;;9.10;98.00;;;;;;5067483;28;20453;-68
2021/10/11 08:57:26;;;;;;;2.20;1.50;;;9.00;98.00;;;;;;5055864;28;20484;-69
2021/10/11 08:59:54;;;;;;;1.80;1.70;;;9.20;98.00;;;;;;5063748;28;20458;-70
2021/10/11 09:02:24;;;;;;;2.03;1.40;;;9.40;98.00;;;;;;5059068;28;20456;-69
2021/10/11 09:04:56;;;;;;;1.73;1.70;;;9.60;98.00;;;;;;5066420;28;20491;-69
2021/10/11 09:07:24;;;;;;;2.43;1.90;;;9.70;98.00;;;;;;5066806;28;20463;-70
2021/10/11 09:09:53;;;;;;;2.57;2.40;;;9.90;98.00;;;;;;5054157;28;20540;-69
2021/10/11 09:12:22;;;;;;;4.90;2.33;;;9.90;98.00;;;;;;5063586;28;20499;-69
2021/10/11 09:15:03;;;;;;;4.50;2.57;;;10.10;98.00;;;;;;5058632;28;20536;-69
2021/10/11 09:17:32;;;;;;;2.10;1.57;;;10.30;98.00;;;;;;5066980;28;20504;-69
2021/10/11 09:20:11;;;;;;;2.70;1.60;;;10.30;98.00;;;;;;5051992;28;20457;-69
2021/10/11 09:22:39;;;;;;;1.20;1.10;;;10.40;98.00;;;;;;5057922;28;20452;-70
2021/10/11 09:25:07;;;;;;;1.67;1.53;;;10.40;98.00;;;;;;5040862;28;20582;-69
2021/10/11 09:27:46;;;;;;;3.10;2.27;;;10.70;98.00;;;;;;5050463;28;20480;-69
2021/10/11 09:30:14;;;;;;;5.03;3.13;;;10.90;98.00;;;;;;5066561;28;20452;-71
2021/10/11 09:32:42;;;;;;;1.37;1.30;;;11.20;98.00;;;;;;5059057;28;20460;-70
2021/10/11 09:35:15;;;;;;;2.10;2.00;;;11.40;98.00;;;;;;5058993;28;20452;-70
2021/10/11 09:37:53;;;;;;;2.27;1.80;;;11.50;98.00;;;;;;5050772;28;20516;-69
2021/10/11 09:40:22;;;;;;;2.47;2.00;;;11.60;98.00;;;;;;5052492;28;20545;-69
2021/10/11 09:42:50;;;;;;;5.83;2.20;;;11.90;98.00;;;;;;5066548;28;20465;-69
2021/10/11 09:45:22;;;;;;;1.77;1.67;;;12.20;98.00;;;;;;5038687;28;20530;-70
2021/10/11 09:47:50;;;;;;;2.93;2.10;;;12.30;98.00;;;;;;5052152;28;20504;-69
2021/10/11 09:50:19;;;;;;;3.43;2.40;;;12.40;98.00;;;;;;5062770;28;20534;-69
2021/10/11 09:52:46;;;;;;;3.80;2.27;;;12.50;98.00;;;;;;5050177;28;20550;-69
2021/10/11 09:55:14;;;;;;;2.23;1.60;;;12.70;98.00;;;;;;5053344;28;21096;-69
2021/10/11 09:57:41;;;;;;;2.23;1.90;;;12.80;98.00;;;;;;5061876;28;20449;-69
2021/10/11 10:00:11;;;;;;;2.27;2.00;;;12.90;98.00;;;;;;5062364;28;20813;-69
2021/10/11 10:02:39;;;;;;;2.17;1.63;;;12.90;98.00;;;;;;5068688;28;21052;-69
2021/10/11 10:05:11;;;;;;;3.00;2.47;;;12.70;98.00;;;;;;5063591;28;20576;-69
2021/10/11 10:07:43;;;;;;;2.17;1.80;;;12.70;98.00;;;;;;5067645;28;20489;-70
2021/10/11 10:12:58;;;;;;;2.13;1.97;;;12.80;98.00;;;;;;5062059;28;20465;-69
2021/10/11 10:15:31;;;;;;;1.53;1.50;;;12.80;98.00;;;;;;5053921;28;20996;-69
2021/10/11 10:18:06;;;;;;;2.87;2.17;;;13.00;98.00;;;;;;5062646;28;20476;-69
2021/10/11 10:20:34;;;;;;;4.30;2.23;;;13.20;98.00;;;;;;5068659;28;21030;-69
2021/10/11 10:23:04;;;;;;;3.43;2.23;;;13.40;98.00;;;;;;5063385;28;20464;-69
2021/10/11 10:25:31;;;;;;;3.70;2.10;;;13.60;98.00;;;;;;5053747;28;20571;-70
2021/10/11 10:28:12;;;;;;;2.53;1.90;;;13.70;98.00;;;;;;5053371;28;20515;-69
2021/10/11 10:30:40;;;;;;;3.40;2.40;;;13.70;98.00;;;;;;5070440;28;20455;-68
2021/10/11 10:33:09;;;;;;;3.73;2.60;;;13.80;98.00;;;;;;5061903;28;20465;-69
2021/10/11 10:35:40;;;;;;;2.87;2.10;;;13.80;98.00;;;;;;5061985;28;20465;-68
2021/10/11 10:38:18;;;;;;;2.70;2.40;;;13.90;98.00;;;;;;5061990;28;20466;-69
2021/10/11 10:40:46;;;;;;;2.13;1.50;;;14.00;98.00;;;;;;5044921;28;20554;-67
2021/10/11 10:43:17;;;;;;;4.20;2.80;;;14.00;98.00;;;;;;5069412;28;20456;-68
2021/10/11 10:45:47;;;;;;;5.23;2.77;;;14.00;98.00;;;;;;5069486;28;20494;-68
2021/10/11 10:48:21;;;;;;;2.00;1.77;;;14.20;98.00;;;;;;5061980;28;20451;-67
2021/10/11 10:50:48;;;;;;;2.37;1.80;;;14.20;98.00;;;;;;5065228;28;20516;-68
2021/10/11 10:53:17;;;;;;;1.93;1.60;;;14.30;98.00;;;;;;5063379;28;20485;-68
2021/10/11 10:55:45;;;;;;;2.90;1.53;;;14.60;98.00;;;;;;5068127;28;20539;-68
2021/10/11 10:58:16;;;;;;;2.67;2.00;;;14.80;98.00;;;;;;5062479;28;20455;-69
2021/10/11 11:00:44;;;;;;;2.43;2.10;;;15.00;97.90;;;;;;5060816;28;20470;-68
2021/10/11 11:03:13;;;;;;;2.70;1.63;;;15.20;96.40;;;;;;5068869;28;20494;-67
2021/10/11 11:05:42;;;;;;;2.30;2.00;;;15.10;94.40;;;;;;5059748;28;20587;-68
2021/10/11 11:08:09;;;;;;;1.83;1.80;;;15.00;93.40;;;;;;5058730;28;20457;-67
2021/10/11 11:10:40;;;;;;;2.73;1.93;;;15.30;93.80;;;;;;5052949;28;20469;-67
2021/10/11 11:13:13;;;;;;;3.87;3.03;;;15.50;94.00;;;;;;5054228;28;20528;-67
2021/10/11 11:15:43;;;;;;;3.50;2.27;;;15.60;94.20;;;;;;5057607;28;20470;-66
2021/10/11 11:18:12;;;;;;;1.90;1.57;;;15.90;94.50;;;;;;5055527;28;20549;-67
2021/10/11 11:20:41;;;;;;;1.93;1.87;;;15.70;92.80;;;;;;5050579;28;20527;-68
2021/10/11 11:23:11;;;;;;;2.60;1.90;;;16.00;93.10;;;;;;5064960;28;20469;-67
2021/10/11 11:25:42;;;;;;;2.97;2.77;;;16.40;92.00;;;;;;5060465;28;20499;-67
2021/10/11 11:28:10;;;;;;;2.50;1.70;;;16.60;91.90;;;;;;5056384;28;20498;-68
2021/10/11 11:30:38;;;;;;;3.23;2.40;;;16.80;92.00;;;;;;5041847;28;20517;-65
2021/10/11 11:33:07;;;;;;;2.37;2.17;;;16.80;94.00;;;;;;5068670;28;21003;-67
2021/10/11 11:35:41;;;;;;;2.77;2.10;;;16.70;91.90;;;;;;5067886;28;21010;-68
2021/10/11 11:38:11;;;;;;;5.00;2.57;;;16.50;91.30;;;;;;5063302;28;20450;-68
2021/10/11 11:40:42;;;;;;;2.97;2.30;;;16.20;92.00;;;;;;5059754;28;20467;-68
2021/10/11 11:43:10;;;;;;;2.30;2.10;;;16.40;93.40;;;;;;5064617;28;20501;-71
2021/10/11 11:45:40;;;;;;;4.00;2.30;;;16.60;92.30;;;;;;5062374;28;20989;-71
2021/10/11 11:48:09;;;;;;;2.00;1.70;;;16.80;92.40;;;;;;5060004;28;20518;-69
2021/10/11 11:50:37;;;;;;;4.70;3.33;;;16.50;92.00;;;;;;5052665;28;20484;-67
2021/10/11 11:53:06;;;;;;;4.40;2.53;;;16.60;93.30;;;;;;5059893;28;20540;-68
2021/10/11 11:55:35;;;;;;;2.80;2.37;;;16.20;91.60;;;;;;5057269;28;21013;-69
2021/10/11 11:58:04;;;;;;;3.70;2.87;;;15.70;93.60;;;;;;5049951;28;20468;-68
2021/10/11 12:00:32;;;;;;;3.10;2.17;;;15.80;94.80;;;;;;5059664;28;20491;-68
2021/10/11 12:03:01;;;;;;;3.40;2.27;;;15.50;94.40;;;;;;5062019;28;20547;-68
2021/10/11 12:05:28;;;;;;;2.27;1.63;;;15.50;95.40;;;;;;5066366;28;20569;-70
2021/10/11 12:07:56;;;;;;;3.33;2.20;;;15.30;95.40;;;;;;5071989;28;20525;-68
2021/10/11 12:10:28;;;;;;;2.30;2.10;;;15.10;95.70;;;;;;5071941;28;20456;-69
2021/10/11 12:12:59;;;;;;;4.70;3.10;;;15.00;96.10;;;;;;5072218;28;20800;-69
2021/10/11 12:15:30;;;;;;;5.63;1.93;;;15.10;96.50;;;;;;5071944;28;20490;-70
2021/10/11 12:18:08;;;;;;;5.80;1.90;;;15.20;95.50;;;;;;5071836;28;20511;-69
2021/10/11 12:20:45;;;;;;;2.77;2.27;;;15.40;95.50;;;;;;5071966;28;20461;-69
2021/10/11 12:23:13;;;;;;;2.10;1.97;;;15.60;96.20;;;;;;5072189;28;20454;-69
2021/10/11 12:25:40;;;;;;;3.10;2.23;;;15.70;94.80;;;;;;5071753;28;20546;-68
2021/10/11 12:28:15;;;;;;;2.43;2.23;;;16.00;94.30;;;;;;5071690;28;20464;-69
2021/10/11 12:30:46;;;;;;;1.90;1.70;;;16.10;94.60;;;;;;5071739;28;20506;-70
2021/10/11 12:33:16;;;;;;;4.57;2.90;;;16.20;94.40;;;;;;5071851;28;20547;-70
2021/10/11 12:35:45;;;;;;;4.33;2.50;;;16.00;93.40;;;;;;5071720;28;20534;-69
2021/10/11 12:38:13;;;;;;;3.00;2.80;;;16.10;93.60;;;;;;5071889;28;20484;-69
2021/10/11 12:40:42;;;;;;;3.63;2.77;;;16.10;93.60;;;;;;5071835;28;20460;-70
2021/10/11 12:43:16;;;;;;;4.73;2.93;;;16.00;92.30;;;;;;5054240;28;20548;-69
2021/10/11 12:45:46;;;;;;;1.70;1.67;;;16.00;94.50;;;;;;5070968;28;20485;-69
2021/10/11 12:48:14;;;;;;;2.30;2.13;;;15.70;94.70;;;;;;5071798;28;20542;-69
2021/10/11 12:50:52;;;;;;;2.73;2.13;;;15.60;94.30;;;;;;5054039;28;20469;-70
2021/10/11 12:53:26;;;;;;;2.87;1.90;;;15.60;95.20;;;;;;5071630;28;20454;-70
2021/10/11 12:55:53;;;;;;;3.77;2.33;;;15.60;94.90;;;;;;5053948;28;20486;-69
2021/10/11 12:58:25;;;;;;;1.77;1.70;;;15.70;96.90;;;;;;5072003;28;20920;-69
2021/10/11 13:00:54;;;;;;;3.20;2.33;;;15.90;94.30;;;;;;5071417;28;20940;-68
2021/10/11 13:03:24;;;;;;;4.50;2.37;;;16.20;93.60;;;;;;5071703;28;20489;-69
2021/10/11 13:05:52;;;;;;;3.37;2.47;;;16.30;93.00;;;;;;5071512;28;20482;-69